Aérodrome :
LOGIN :

S'inscrire | Disclaimer

   EN    FR    IT 

 










Légende :    VFR   VFR Marginal   IFR   IFR Intensif   IFR Très Intensif
Visi : 
Plafond : 
>= 8 km
>= 3000ft
5 à 8 km
1000 à 3000 ft
1500m à 5 km
500 à 1000 ft
800 à 1500m
200 à 500 ft
< 800m
< 200 ft
Symboles :   Orages  Brouillard  Fortes neiges  Fortes précipitations  Vent > 20 kt
SIGMETs :   Divers  Orages  Givrage  Turbulence  Onde Orograph.  Cendres Volcan.







- Altitude de l'aérodrome : 424 ft
- Code IATA : QGY


LHPR - Györ Per

DERNIER METAR :
  • 280745Z 30009KT 9999 -RA BKN008 OVC083 07/06 Q1008 RMK GRN

METARs EXPIRÉS :
  • 280715Z 29006KT 9000 -RA BKN008 OVC083 07/06 Q1008 RMK GRN
  • 280645Z 30007KT 260V340 9999 OVC006 07/06 Q1008 RMK YLO
  • 280615Z 29008KT 260V320 9999 OVC006 06/06 Q1007 RMK YLO
  • 280545Z 30009KT 6000 OVC006 06/06 Q1007 RMK YLO
  • 280515Z 30009KT 3500 BR OVC006 06/06 Q1007 RMK YLO

TAF TAF LHPR
Valide du 28 à 06h jusqu'au 28 à 15h UTC


280500Z 2806/2815 33010KT 3000 BR OVC003
BECMG 2806/2808 6000 -RA OVC010
BECMG 2808/2810 3000 RA BR OVC005
Pas de NOTAMs connus pour ce terrain.



MET'MAP, la Météo Aéronautique d'un coup d'oeil ! - Copyright ORBIFLY Décembre 2007 - Disclaimer

ORBIFLY MET'MAP TEAM :

Programmation & Développement : Alexandra Zaïnal
Conception & Développement : Baudouin d'Aumeries
Co-Programmation & Développement : Marc-Olivier Méhu
Soutien technique & logistique : Manuel Goepfert

Contact : metmap@orbifly.com




SOURCES & CREDITS :

   NOAA